sensor_id;sensor_type;location;lat;lon;timestamp;P1;durP1;ratioP1;P2;durP2;ratioP2
49051;SDS011;34866;48.670;18.260;2023-05-02T00:00:41;13.07;;;6.45;;
49051;SDS011;34866;48.670;18.260;2023-05-02T00:03:09;12.82;;;6.55;;
49051;SDS011;34866;48.670;18.260;2023-05-02T00:05:35;15.48;;;5.78;;
49051;SDS011;34866;48.670;18.260;2023-05-02T00:08:01;10.35;;;5.47;;
49051;SDS011;34866;48.670;18.260;2023-05-02T00:10:27;12.77;;;5.82;;
49051;SDS011;34866;48.670;18.260;2023-05-02T00:12:53;10.68;;;5.25;;
49051;SDS011;34866;48.670;18.260;2023-05-02T00:15:20;10.80;;;6.28;;
49051;SDS011;34866;48.670;18.260;2023-05-02T00:17:45;13.30;;;6.47;;
49051;SDS011;34866;48.670;18.260;2023-05-02T00:20:11;12.65;;;5.97;;
49051;SDS011;34866;48.670;18.260;2023-05-02T00:22:37;12.32;;;6.20;;
49051;SDS011;34866;48.670;18.260;2023-05-02T00:25:03;12.15;;;5.57;;
49051;SDS011;34866;48.670;18.260;2023-05-02T00:27:30;10.55;;;5.78;;
49051;SDS011;34866;48.670;18.260;2023-05-02T00:29:56;12.27;;;6.13;;
49051;SDS011;34866;48.670;18.260;2023-05-02T00:32:23;9.52;;;5.20;;
49051;SDS011;34866;48.670;18.260;2023-05-02T00:34:52;10.40;;;5.57;;
49051;SDS011;34866;48.670;18.260;2023-05-02T00:37:18;11.50;;;5.25;;
49051;SDS011;34866;48.670;18.260;2023-05-02T00:39:44;7.50;;;4.65;;
49051;SDS011;34866;48.670;18.260;2023-05-02T00:42:09;11.30;;;5.35;;
49051;SDS011;34866;48.670;18.260;2023-05-02T00:44:35;11.65;;;4.97;;
49051;SDS011;34866;48.670;18.260;2023-05-02T00:47:01;13.82;;;6.57;;
49051;SDS011;34866;48.670;18.260;2023-05-02T00:49:27;10.90;;;5.07;;
49051;SDS011;34866;48.670;18.260;2023-05-02T00:51:53;10.20;;;4.68;;
49051;SDS011;34866;48.670;18.260;2023-05-02T00:54:19;11.20;;;4.97;;
49051;SDS011;34866;48.670;18.260;2023-05-02T00:56:44;18.05;;;4.60;;
49051;SDS011;34866;48.670;18.260;2023-05-02T00:59:11;9.25;;;5.45;;
49051;SDS011;34866;48.670;18.260;2023-05-02T01:01:49;10.27;;;5.43;;
49051;SDS011;34866;48.670;18.260;2023-05-02T01:04:36;10.27;;;5.25;;
49051;SDS011;34866;48.670;18.260;2023-05-02T01:12:45;14.75;;;5.00;;
49051;SDS011;34866;48.670;18.260;2023-05-02T01:15:31;9.10;;;4.32;;
49051;SDS011;34866;48.670;18.260;2023-05-02T01:17:59;9.75;;;4.75;;
49051;SDS011;34866;48.670;18.260;2023-05-02T01:20:27;9.27;;;3.72;;
49051;SDS011;34866;48.670;18.260;2023-05-02T01:22:58;8.43;;;5.05;;
49051;SDS011;34866;48.670;18.260;2023-05-02T01:28:45;10.93;;;4.43;;
49051;SDS011;34866;48.670;18.260;2023-05-02T01:31:32;11.77;;;5.55;;
49051;SDS011;34866;48.670;18.260;2023-05-02T01:34:01;8.98;;;4.57;;
49051;SDS011;34866;48.670;18.260;2023-05-02T01:36:30;16.27;;;4.72;;
49051;SDS011;34866;48.670;18.260;2023-05-02T01:38:57;8.45;;;4.25;;
49051;SDS011;34866;48.670;18.260;2023-05-02T01:41:26;7.70;;;3.92;;
49051;SDS011;34866;48.670;18.260;2023-05-02T01:43:53;12.85;;;4.38;;
49051;SDS011;34866;48.670;18.260;2023-05-02T01:46:26;11.77;;;3.90;;
49051;SDS011;34866;48.670;18.260;2023-05-02T01:49:04;9.80;;;4.30;;
49051;SDS011;34866;48.670;18.260;2023-05-02T01:51:32;10.70;;;4.20;;
49051;SDS011;34866;48.670;18.260;2023-05-02T01:54:01;10.55;;;4.55;;
49051;SDS011;34866;48.670;18.260;2023-05-02T01:56:34;9.60;;;4.10;;
49051;SDS011;34866;48.670;18.260;2023-05-02T01:59:07;15.05;;;4.43;;
49051;SDS011;34866;48.670;18.260;2023-05-02T02:01:37;8.07;;;4.20;;
49051;SDS011;34866;48.670;18.260;2023-05-02T02:04:05;6.95;;;3.85;;
49051;SDS011;34866;48.670;18.260;2023-05-02T02:06:33;6.47;;;3.50;;
49051;SDS011;34866;48.670;18.260;2023-05-02T02:08:59;8.95;;;3.83;;
49051;SDS011;34866;48.670;18.260;2023-05-02T02:11:28;13.00;;;3.97;;
49051;SDS011;34866;48.670;18.260;2023-05-02T02:14:11;14.90;;;4.60;;
49051;SDS011;34866;48.670;18.260;2023-05-02T02:16:46;11.05;;;3.55;;
49051;SDS011;34866;48.670;18.260;2023-05-02T02:19:13;7.53;;;3.70;;
49051;SDS011;34866;48.670;18.260;2023-05-02T02:21:41;9.13;;;3.97;;
49051;SDS011;34866;48.670;18.260;2023-05-02T02:24:08;9.07;;;4.13;;
49051;SDS011;34866;48.670;18.260;2023-05-02T02:26:34;6.78;;;3.92;;
49051;SDS011;34866;48.670;18.260;2023-05-02T02:29:02;8.07;;;4.35;;
49051;SDS011;34866;48.670;18.260;2023-05-02T02:31:34;7.38;;;4.00;;
49051;SDS011;34866;48.670;18.260;2023-05-02T02:34:03;8.77;;;3.72;;
49051;SDS011;34866;48.670;18.260;2023-05-02T02:36:52;8.98;;;3.50;;
49051;SDS011;34866;48.670;18.260;2023-05-02T02:42:31;6.70;;;3.20;;
49051;SDS011;34866;48.670;18.260;2023-05-02T02:45:34;12.32;;;4.35;;
49051;SDS011;34866;48.670;18.260;2023-05-02T02:48:18;12.65;;;3.72;;
49051;SDS011;34866;48.670;18.260;2023-05-02T02:51:24;6.57;;;3.08;;
49051;SDS011;34866;48.670;18.260;2023-05-02T03:00:15;6.80;;;2.63;;
49051;SDS011;34866;48.670;18.260;2023-05-02T03:02:45;8.30;;;3.33;;
49051;SDS011;34866;48.670;18.260;2023-05-02T03:05:12;6.00;;;3.65;;
49051;SDS011;34866;48.670;18.260;2023-05-02T03:07:38;7.40;;;3.72;;
49051;SDS011;34866;48.670;18.260;2023-05-02T03:10:07;8.25;;;3.40;;
49051;SDS011;34866;48.670;18.260;2023-05-02T03:12:35;7.05;;;4.05;;
49051;SDS011;34866;48.670;18.260;2023-05-02T03:17:33;11.38;;;4.00;;
49051;SDS011;34866;48.670;18.260;2023-05-02T03:19:59;10.32;;;5.07;;
49051;SDS011;34866;48.670;18.260;2023-05-02T03:22:31;9.38;;;3.20;;
49051;SDS011;34866;48.670;18.260;2023-05-02T03:24:57;11.02;;;3.83;;
49051;SDS011;34866;48.670;18.260;2023-05-02T03:27:22;8.20;;;3.53;;
49051;SDS011;34866;48.670;18.260;2023-05-02T03:29:48;10.27;;;3.40;;
49051;SDS011;34866;48.670;18.260;2023-05-02T03:32:14;8.27;;;4.13;;
49051;SDS011;34866;48.670;18.260;2023-05-02T03:34:40;9.32;;;4.28;;
49051;SDS011;34866;48.670;18.260;2023-05-02T03:37:06;6.65;;;3.70;;
49051;SDS011;34866;48.670;18.260;2023-05-02T03:39:32;13.05;;;3.50;;
49051;SDS011;34866;48.670;18.260;2023-05-02T03:41:57;5.72;;;2.72;;
49051;SDS011;34866;48.670;18.260;2023-05-02T03:44:23;8.65;;;3.00;;
49051;SDS011;34866;48.670;18.260;2023-05-02T03:46:49;12.48;;;3.92;;
49051;SDS011;34866;48.670;18.260;2023-05-02T03:49:15;11.27;;;3.53;;
49051;SDS011;34866;48.670;18.260;2023-05-02T03:51:41;6.07;;;3.08;;
49051;SDS011;34866;48.670;18.260;2023-05-02T03:54:06;7.70;;;3.63;;
49051;SDS011;34866;48.670;18.260;2023-05-02T03:56:33;13.10;;;3.20;;
49051;SDS011;34866;48.670;18.260;2023-05-02T03:58:59;13.52;;;2.92;;
49051;SDS011;34866;48.670;18.260;2023-05-02T04:01:25;6.88;;;2.80;;
49051;SDS011;34866;48.670;18.260;2023-05-02T04:03:51;8.25;;;2.80;;
49051;SDS011;34866;48.670;18.260;2023-05-02T04:06:17;7.97;;;2.50;;
49051;SDS011;34866;48.670;18.260;2023-05-02T04:08:42;6.85;;;2.78;;
49051;SDS011;34866;48.670;18.260;2023-05-02T04:11:08;5.60;;;2.20;;
49051;SDS011;34866;48.670;18.260;2023-05-02T04:13:34;8.13;;;2.90;;
49051;SDS011;34866;48.670;18.260;2023-05-02T04:16:00;9.85;;;2.45;;
49051;SDS011;34866;48.670;18.260;2023-05-02T04:18:25;5.72;;;2.38;;
49051;SDS011;34866;48.670;18.260;2023-05-02T04:20:51;15.57;;;2.75;;
49051;SDS011;34866;48.670;18.260;2023-05-02T04:23:16;6.57;;;2.67;;
49051;SDS011;34866;48.670;18.260;2023-05-02T04:25:53;7.85;;;3.00;;
49051;SDS011;34866;48.670;18.260;2023-05-02T04:28:20;8.57;;;2.50;;
49051;SDS011;34866;48.670;18.260;2023-05-02T04:30:47;6.13;;;3.10;;
49051;SDS011;34866;48.670;18.260;2023-05-02T04:33:13;11.10;;;2.80;;
49051;SDS011;34866;48.670;18.260;2023-05-02T04:35:39;6.65;;;3.00;;
49051;SDS011;34866;48.670;18.260;2023-05-02T04:38:05;6.28;;;2.53;;
49051;SDS011;34866;48.670;18.260;2023-05-02T04:40:32;5.13;;;2.25;;
49051;SDS011;34866;48.670;18.260;2023-05-02T04:42:58;6.10;;;2.78;;
49051;SDS011;34866;48.670;18.260;2023-05-02T04:45:24;6.68;;;2.72;;
49051;SDS011;34866;48.670;18.260;2023-05-02T04:47:50;32.47;;;4.32;;
49051;SDS011;34866;48.670;18.260;2023-05-02T04:50:16;20.75;;;3.20;;
49051;SDS011;34866;48.670;18.260;2023-05-02T04:52:44;7.18;;;3.13;;
49051;SDS011;34866;48.670;18.260;2023-05-02T04:55:10;5.53;;;2.38;;
49051;SDS011;34866;48.670;18.260;2023-05-02T04:57:36;10.55;;;2.60;;
49051;SDS011;34866;48.670;18.260;2023-05-02T05:00:04;7.93;;;3.60;;
49051;SDS011;34866;48.670;18.260;2023-05-02T05:02:30;6.85;;;3.28;;
49051;SDS011;34866;48.670;18.260;2023-05-02T05:04:56;13.23;;;2.95;;
49051;SDS011;34866;48.670;18.260;2023-05-02T05:07:22;12.30;;;3.03;;
49051;SDS011;34866;48.670;18.260;2023-05-02T05:09:47;10.27;;;3.30;;
49051;SDS011;34866;48.670;18.260;2023-05-02T05:12:13;6.82;;;2.97;;
49051;SDS011;34866;48.670;18.260;2023-05-02T05:14:39;5.50;;;2.80;;
49051;SDS011;34866;48.670;18.260;2023-05-02T05:17:05;9.35;;;3.55;;
49051;SDS011;34866;48.670;18.260;2023-05-02T05:19:30;7.13;;;3.72;;
49051;SDS011;34866;48.670;18.260;2023-05-02T05:21:56;6.90;;;2.55;;
49051;SDS011;34866;48.670;18.260;2023-05-02T05:24:22;6.15;;;2.95;;
49051;SDS011;34866;48.670;18.260;2023-05-02T05:26:47;7.20;;;2.95;;
49051;SDS011;34866;48.670;18.260;2023-05-02T05:29:13;6.95;;;2.97;;
49051;SDS011;34866;48.670;18.260;2023-05-02T05:31:39;10.13;;;3.53;;
49051;SDS011;34866;48.670;18.260;2023-05-02T05:34:05;5.30;;;2.65;;
49051;SDS011;34866;48.670;18.260;2023-05-02T05:36:31;7.50;;;3.67;;
49051;SDS011;34866;48.670;18.260;2023-05-02T05:38:57;6.43;;;2.80;;
49051;SDS011;34866;48.670;18.260;2023-05-02T05:41:24;5.75;;;2.58;;
49051;SDS011;34866;48.670;18.260;2023-05-02T05:43:50;6.88;;;3.15;;
49051;SDS011;34866;48.670;18.260;2023-05-02T05:46:15;7.57;;;3.72;;
49051;SDS011;34866;48.670;18.260;2023-05-02T05:48:41;10.85;;;3.58;;
49051;SDS011;34866;48.670;18.260;2023-05-02T05:51:07;9.38;;;4.50;;
49051;SDS011;34866;48.670;18.260;2023-05-02T05:53:32;9.20;;;3.20;;
49051;SDS011;34866;48.670;18.260;2023-05-02T05:55:58;6.93;;;3.17;;
49051;SDS011;34866;48.670;18.260;2023-05-02T05:58:33;10.02;;;3.92;;
49051;SDS011;34866;48.670;18.260;2023-05-02T06:00:59;6.05;;;3.03;;
49051;SDS011;34866;48.670;18.260;2023-05-02T06:03:24;5.82;;;2.33;;
49051;SDS011;34866;48.670;18.260;2023-05-02T06:05:51;5.20;;;2.30;;
49051;SDS011;34866;48.670;18.260;2023-05-02T06:08:17;4.65;;;2.40;;
49051;SDS011;34866;48.670;18.260;2023-05-02T06:10:45;5.95;;;2.10;;
49051;SDS011;34866;48.670;18.260;2023-05-02T06:13:11;9.30;;;2.33;;
49051;SDS011;34866;48.670;18.260;2023-05-02T06:15:37;5.65;;;2.13;;
49051;SDS011;34866;48.670;18.260;2023-05-02T06:18:02;3.83;;;1.70;;
49051;SDS011;34866;48.670;18.260;2023-05-02T06:20:28;5.53;;;2.20;;
49051;SDS011;34866;48.670;18.260;2023-05-02T06:22:54;6.45;;;2.13;;
49051;SDS011;34866;48.670;18.260;2023-05-02T06:25:20;5.78;;;2.28;;
49051;SDS011;34866;48.670;18.260;2023-05-02T06:27:45;7.13;;;2.20;;
49051;SDS011;34866;48.670;18.260;2023-05-02T06:30:14;5.88;;;2.63;;
49051;SDS011;34866;48.670;18.260;2023-05-02T06:32:40;4.75;;;2.25;;
49051;SDS011;34866;48.670;18.260;2023-05-02T06:35:08;6.55;;;2.63;;
49051;SDS011;34866;48.670;18.260;2023-05-02T06:37:35;7.47;;;2.42;;
49051;SDS011;34866;48.670;18.260;2023-05-02T06:40:01;4.10;;;1.75;;
49051;SDS011;34866;48.670;18.260;2023-05-02T06:42:29;6.05;;;2.45;;
49051;SDS011;34866;48.670;18.260;2023-05-02T06:44:55;5.07;;;2.58;;
49051;SDS011;34866;48.670;18.260;2023-05-02T06:47:22;5.38;;;2.13;;
49051;SDS011;34866;48.670;18.260;2023-05-02T06:49:49;7.18;;;2.25;;
49051;SDS011;34866;48.670;18.260;2023-05-02T06:52:16;6.90;;;2.95;;
49051;SDS011;34866;48.670;18.260;2023-05-02T06:54:41;5.35;;;2.05;;
49051;SDS011;34866;48.670;18.260;2023-05-02T06:57:07;4.70;;;2.70;;
49051;SDS011;34866;48.670;18.260;2023-05-02T06:59:35;9.15;;;2.60;;
49051;SDS011;34866;48.670;18.260;2023-05-02T07:02:03;8.73;;;2.72;;
49051;SDS011;34866;48.670;18.260;2023-05-02T07:04:30;5.10;;;2.25;;
49051;SDS011;34866;48.670;18.260;2023-05-02T07:06:56;4.40;;;2.33;;
49051;SDS011;34866;48.670;18.260;2023-05-02T07:09:24;5.20;;;2.40;;
49051;SDS011;34866;48.670;18.260;2023-05-02T07:11:50;6.18;;;2.28;;
49051;SDS011;34866;48.670;18.260;2023-05-02T07:14:16;6.93;;;2.65;;
49051;SDS011;34866;48.670;18.260;2023-05-02T07:16:42;8.07;;;3.00;;
49051;SDS011;34866;48.670;18.260;2023-05-02T07:19:08;7.93;;;2.88;;
49051;SDS011;34866;48.670;18.260;2023-05-02T07:21:33;7.70;;;2.90;;
49051;SDS011;34866;48.670;18.260;2023-05-02T07:23:59;6.10;;;2.80;;
49051;SDS011;34866;48.670;18.260;2023-05-02T07:26:26;6.78;;;2.58;;
49051;SDS011;34866;48.670;18.260;2023-05-02T07:28:52;9.63;;;2.38;;
49051;SDS011;34866;48.670;18.260;2023-05-02T07:31:18;6.03;;;2.45;;
49051;SDS011;34866;48.670;18.260;2023-05-02T07:33:45;4.93;;;2.28;;
49051;SDS011;34866;48.670;18.260;2023-05-02T07:36:10;5.20;;;2.60;;
49051;SDS011;34866;48.670;18.260;2023-05-02T07:38:36;6.97;;;2.42;;
49051;SDS011;34866;48.670;18.260;2023-05-02T07:41:08;9.25;;;2.70;;
49051;SDS011;34866;48.670;18.260;2023-05-02T07:43:33;5.80;;;2.70;;
49051;SDS011;34866;48.670;18.260;2023-05-02T07:46:30;4.70;;;2.20;;
49051;SDS011;34866;48.670;18.260;2023-05-02T07:48:57;5.63;;;2.35;;
49051;SDS011;34866;48.670;18.260;2023-05-02T07:51:50;8.75;;;2.75;;
49051;SDS011;34866;48.670;18.260;2023-05-02T07:54:22;7.13;;;3.15;;
49051;SDS011;34866;48.670;18.260;2023-05-02T07:56:52;5.07;;;1.90;;
49051;SDS011;34866;48.670;18.260;2023-05-02T07:59:21;4.90;;;2.17;;
49051;SDS011;34866;48.670;18.260;2023-05-02T08:01:52;6.97;;;2.25;;
49051;SDS011;34866;48.670;18.260;2023-05-02T08:04:18;11.98;;;2.58;;
49051;SDS011;34866;48.670;18.260;2023-05-02T08:06:44;10.02;;;2.53;;
49051;SDS011;34866;48.670;18.260;2023-05-02T08:09:10;8.50;;;3.33;;
49051;SDS011;34866;48.670;18.260;2023-05-02T08:11:41;6.22;;;2.90;;
49051;SDS011;34866;48.670;18.260;2023-05-02T08:14:22;8.05;;;2.80;;
49051;SDS011;34866;48.670;18.260;2023-05-02T08:16:50;9.13;;;3.25;;
49051;SDS011;34866;48.670;18.260;2023-05-02T08:19:19;4.63;;;2.28;;
49051;SDS011;34866;48.670;18.260;2023-05-02T08:21:59;5.15;;;2.42;;
49051;SDS011;34866;48.670;18.260;2023-05-02T08:27:11;8.17;;;2.00;;
49051;SDS011;34866;48.670;18.260;2023-05-02T08:30:04;6.50;;;2.08;;
49051;SDS011;34866;48.670;18.260;2023-05-02T08:32:39;4.20;;;1.50;;
49051;SDS011;34866;48.670;18.260;2023-05-02T08:35:11;4.72;;;1.90;;
49051;SDS011;34866;48.670;18.260;2023-05-02T08:37:46;8.13;;;2.30;;
49051;SDS011;34866;48.670;18.260;2023-05-02T08:40:14;3.92;;;1.77;;
49051;SDS011;34866;48.670;18.260;2023-05-02T08:43:02;6.15;;;1.75;;
49051;SDS011;34866;48.670;18.260;2023-05-02T08:45:30;6.45;;;2.20;;
49051;SDS011;34866;48.670;18.260;2023-05-02T08:48:17;5.72;;;2.05;;
49051;SDS011;34866;48.670;18.260;2023-05-02T08:50:44;5.10;;;1.75;;
49051;SDS011;34866;48.670;18.260;2023-05-02T08:53:17;3.65;;;1.60;;
49051;SDS011;34866;48.670;18.260;2023-05-02T08:58:58;4.93;;;2.10;;
49051;SDS011;34866;48.670;18.260;2023-05-02T09:01:26;3.78;;;1.70;;
49051;SDS011;34866;48.670;18.260;2023-05-02T09:04:09;4.55;;;1.95;;
49051;SDS011;34866;48.670;18.260;2023-05-02T09:06:54;8.10;;;2.05;;
49051;SDS011;34866;48.670;18.260;2023-05-02T09:09:25;8.23;;;1.90;;
49051;SDS011;34866;48.670;18.260;2023-05-02T09:12:11;4.90;;;2.33;;
49051;SDS011;34866;48.670;18.260;2023-05-02T09:14:36;11.38;;;2.17;;
49051;SDS011;34866;48.670;18.260;2023-05-02T09:17:45;2.80;;;1.52;;
49051;SDS011;34866;48.670;18.260;2023-05-02T09:20:40;7.15;;;2.15;;
49051;SDS011;34866;48.670;18.260;2023-05-02T09:23:10;4.53;;;1.80;;
49051;SDS011;34866;48.670;18.260;2023-05-02T09:28:39;4.63;;;2.00;;
49051;SDS011;34866;48.670;18.260;2023-05-02T09:31:31;10.07;;;2.22;;
49051;SDS011;34866;48.670;18.260;2023-05-02T09:37:08;5.45;;;2.10;;
49051;SDS011;34866;48.670;18.260;2023-05-02T09:39:39;7.80;;;2.72;;
49051;SDS011;34866;48.670;18.260;2023-05-02T09:42:56;4.65;;;1.92;;
49051;SDS011;34866;48.670;18.260;2023-05-02T09:45:36;6.72;;;2.70;;
49051;SDS011;34866;48.670;18.260;2023-05-02T09:48:06;4.80;;;2.10;;
49051;SDS011;34866;48.670;18.260;2023-05-02T09:50:35;4.93;;;1.80;;
49051;SDS011;34866;48.670;18.260;2023-05-02T09:53:08;5.65;;;2.00;;
49051;SDS011;34866;48.670;18.260;2023-05-02T09:59:15;4.88;;;2.35;;
49051;SDS011;34866;48.670;18.260;2023-05-02T10:01:45;6.07;;;2.22;;
49051;SDS011;34866;48.670;18.260;2023-05-02T10:04:31;6.65;;;2.53;;
49051;SDS011;34866;48.670;18.260;2023-05-02T10:09:53;4.65;;;2.03;;
49051;SDS011;34866;48.670;18.260;2023-05-02T10:12:26;3.97;;;2.10;;
49051;SDS011;34866;48.670;18.260;2023-05-02T10:15:02;4.22;;;1.95;;
49051;SDS011;34866;48.670;18.260;2023-05-02T10:17:47;8.35;;;2.15;;
49051;SDS011;34866;48.670;18.260;2023-05-02T10:20:20;8.07;;;2.30;;
49051;SDS011;34866;48.670;18.260;2023-05-02T10:22:51;4.43;;;2.05;;
49051;SDS011;34866;48.670;18.260;2023-05-02T10:25:17;8.80;;;2.35;;
49051;SDS011;34866;48.670;18.260;2023-05-02T10:27:51;5.47;;;2.45;;
49051;SDS011;34866;48.670;18.260;2023-05-02T10:33:28;6.63;;;2.25;;
49051;SDS011;34866;48.670;18.260;2023-05-02T10:35:58;5.75;;;2.40;;
49051;SDS011;34866;48.670;18.260;2023-05-02T10:38:24;7.25;;;2.40;;
49051;SDS011;34866;48.670;18.260;2023-05-02T10:44:36;7.78;;;2.55;;
49051;SDS011;34866;48.670;18.260;2023-05-02T10:50:00;5.57;;;2.53;;
49051;SDS011;34866;48.670;18.260;2023-05-02T10:52:34;5.55;;;2.33;;
49051;SDS011;34866;48.670;18.260;2023-05-02T10:55:18;6.85;;;2.45;;
49051;SDS011;34866;48.670;18.260;2023-05-02T11:00:26;5.30;;;2.60;;
49051;SDS011;34866;48.670;18.260;2023-05-02T11:02:53;10.65;;;2.75;;
49051;SDS011;34866;48.670;18.260;2023-05-02T11:24:46;10.07;;;2.65;;
49051;SDS011;34866;48.670;18.260;2023-05-02T11:27:47;5.15;;;2.15;;
49051;SDS011;34866;48.670;18.260;2023-05-02T11:30:11;5.10;;;1.92;;
49051;SDS011;34866;48.670;18.260;2023-05-02T11:35:20;4.63;;;2.63;;
49051;SDS011;34866;48.670;18.260;2023-05-02T11:37:58;5.45;;;2.20;;
49051;SDS011;34866;48.670;18.260;2023-05-02T11:40:50;7.47;;;2.70;;
49051;SDS011;34866;48.670;18.260;2023-05-02T11:43:20;4.80;;;2.05;;
49051;SDS011;34866;48.670;18.260;2023-05-02T11:46:07;4.68;;;2.47;;
49051;SDS011;34866;48.670;18.260;2023-05-02T11:48:33;6.82;;;2.20;;
49051;SDS011;34866;48.670;18.260;2023-05-02T11:51:06;8.00;;;2.60;;
49051;SDS011;34866;48.670;18.260;2023-05-02T11:53:55;6.75;;;2.20;;
49051;SDS011;34866;48.670;18.260;2023-05-02T11:56:45;6.28;;;2.47;;
49051;SDS011;34866;48.670;18.260;2023-05-02T11:59:12;4.95;;;2.08;;
49051;SDS011;34866;48.670;18.260;2023-05-02T12:01:53;4.63;;;2.25;;
49051;SDS011;34866;48.670;18.260;2023-05-02T12:05:08;4.45;;;2.33;;
49051;SDS011;34866;48.670;18.260;2023-05-02T12:07:47;9.18;;;2.10;;
49051;SDS011;34866;48.670;18.260;2023-05-02T12:10:34;4.68;;;2.30;;
49051;SDS011;34866;48.670;18.260;2023-05-02T12:13:12;4.60;;;2.15;;
49051;SDS011;34866;48.670;18.260;2023-05-02T12:15:39;8.40;;;2.10;;
49051;SDS011;34866;48.670;18.260;2023-05-02T12:18:11;5.07;;;2.40;;
49051;SDS011;34866;48.670;18.260;2023-05-02T12:20:57;4.57;;;2.10;;
49051;SDS011;34866;48.670;18.260;2023-05-02T12:23:23;5.38;;;2.75;;
49051;SDS011;34866;48.670;18.260;2023-05-02T12:25:52;5.28;;;2.45;;
49051;SDS011;34866;48.670;18.260;2023-05-02T12:28:18;5.30;;;2.55;;
49051;SDS011;34866;48.670;18.260;2023-05-02T12:30:46;4.38;;;2.30;;
49051;SDS011;34866;48.670;18.260;2023-05-02T12:33:14;4.95;;;2.60;;
49051;SDS011;34866;48.670;18.260;2023-05-02T12:35:41;4.35;;;2.33;;
49051;SDS011;34866;48.670;18.260;2023-05-02T12:40:49;5.50;;;2.88;;
49051;SDS011;34866;48.670;18.260;2023-05-02T12:43:18;4.45;;;2.40;;
49051;SDS011;34866;48.670;18.260;2023-05-02T12:45:48;6.53;;;2.30;;
49051;SDS011;34866;48.670;18.260;2023-05-02T12:51:58;5.07;;;2.33;;
49051;SDS011;34866;48.670;18.260;2023-05-02T12:54:27;7.43;;;2.28;;
49051;SDS011;34866;48.670;18.260;2023-05-02T12:56:53;9.20;;;2.63;;
49051;SDS011;34866;48.670;18.260;2023-05-02T12:59:28;8.35;;;3.28;;
49051;SDS011;34866;48.670;18.260;2023-05-02T13:01:55;4.93;;;2.30;;
49051;SDS011;34866;48.670;18.260;2023-05-02T13:04:40;5.05;;;2.42;;
49051;SDS011;34866;48.670;18.260;2023-05-02T13:07:06;5.90;;;2.42;;
49051;SDS011;34866;48.670;18.260;2023-05-02T13:09:36;6.72;;;2.30;;
49051;SDS011;34866;48.670;18.260;2023-05-02T13:12:22;9.68;;;2.17;;
49051;SDS011;34866;48.670;18.260;2023-05-02T13:14:47;10.50;;;2.53;;
49051;SDS011;34866;48.670;18.260;2023-05-02T13:17:56;4.07;;;1.90;;
49051;SDS011;34866;48.670;18.260;2023-05-02T13:20:27;4.72;;;2.33;;
49051;SDS011;34866;48.670;18.260;2023-05-02T13:22:52;6.05;;;2.20;;
49051;SDS011;34866;48.670;18.260;2023-05-02T13:25:27;3.97;;;2.08;;
49051;SDS011;34866;48.670;18.260;2023-05-02T13:27:53;4.45;;;2.00;;
49051;SDS011;34866;48.670;18.260;2023-05-02T13:30:25;7.15;;;2.67;;
49051;SDS011;34866;48.670;18.260;2023-05-02T13:32:51;9.68;;;2.70;;
49051;SDS011;34866;48.670;18.260;2023-05-02T13:35:17;4.97;;;2.50;;
49051;SDS011;34866;48.670;18.260;2023-05-02T13:37:46;4.43;;;2.35;;
49051;SDS011;34866;48.670;18.260;2023-05-02T13:40:13;5.53;;;2.05;;
49051;SDS011;34866;48.670;18.260;2023-05-02T13:42:47;7.45;;;2.55;;
49051;SDS011;34866;48.670;18.260;2023-05-02T13:45:33;4.63;;;2.40;;
49051;SDS011;34866;48.670;18.260;2023-05-02T13:48:19;4.43;;;2.33;;
49051;SDS011;34866;48.670;18.260;2023-05-02T13:50:44;9.10;;;3.15;;
49051;SDS011;34866;48.670;18.260;2023-05-02T13:53:10;4.15;;;2.22;;
49051;SDS011;34866;48.670;18.260;2023-05-02T13:55:36;7.90;;;2.83;;
49051;SDS011;34866;48.670;18.260;2023-05-02T13:58:04;4.93;;;2.40;;
49051;SDS011;34866;48.670;18.260;2023-05-02T14:00:30;9.10;;;3.13;;
49051;SDS011;34866;48.670;18.260;2023-05-02T14:03:02;11.27;;;2.88;;
49051;SDS011;34866;48.670;18.260;2023-05-02T14:05:38;8.60;;;2.92;;
49051;SDS011;34866;48.670;18.260;2023-05-02T14:08:08;5.25;;;2.97;;
49051;SDS011;34866;48.670;18.260;2023-05-02T14:10:42;8.95;;;2.65;;
49051;SDS011;34866;48.670;18.260;2023-05-02T14:13:08;5.55;;;3.00;;
49051;SDS011;34866;48.670;18.260;2023-05-02T14:15:33;5.30;;;3.08;;
49051;SDS011;34866;48.670;18.260;2023-05-02T14:18:01;5.00;;;2.58;;
49051;SDS011;34866;48.670;18.260;2023-05-02T14:20:36;6.00;;;2.70;;
49051;SDS011;34866;48.670;18.260;2023-05-02T14:23:02;4.80;;;2.83;;
49051;SDS011;34866;48.670;18.260;2023-05-02T14:25:27;7.50;;;2.90;;
49051;SDS011;34866;48.670;18.260;2023-05-02T14:27:53;4.68;;;2.67;;
49051;SDS011;34866;48.670;18.260;2023-05-02T14:30:21;4.20;;;2.33;;
49051;SDS011;34866;48.670;18.260;2023-05-02T14:32:47;7.50;;;2.60;;
49051;SDS011;34866;48.670;18.260;2023-05-02T14:35:16;5.35;;;2.85;;
49051;SDS011;34866;48.670;18.260;2023-05-02T14:37:44;10.85;;;3.08;;
49051;SDS011;34866;48.670;18.260;2023-05-02T14:40:17;6.22;;;2.78;;
49051;SDS011;34866;48.670;18.260;2023-05-02T14:42:43;8.48;;;2.50;;
49051;SDS011;34866;48.670;18.260;2023-05-02T14:45:09;5.75;;;2.40;;
49051;SDS011;34866;48.670;18.260;2023-05-02T14:47:37;5.10;;;2.72;;
49051;SDS011;34866;48.670;18.260;2023-05-02T14:50:05;5.95;;;2.75;;
49051;SDS011;34866;48.670;18.260;2023-05-02T14:52:31;13.10;;;3.03;;
49051;SDS011;34866;48.670;18.260;2023-05-02T14:55:02;5.10;;;2.35;;
49051;SDS011;34866;48.670;18.260;2023-05-02T14:57:31;5.22;;;2.53;;
49051;SDS011;34866;48.670;18.260;2023-05-02T15:02:45;9.00;;;2.90;;
49051;SDS011;34866;48.670;18.260;2023-05-02T15:05:34;6.30;;;2.90;;
49051;SDS011;34866;48.670;18.260;2023-05-02T15:08:10;6.32;;;3.30;;
49051;SDS011;34866;48.670;18.260;2023-05-02T15:10:38;5.75;;;2.60;;
49051;SDS011;34866;48.670;18.260;2023-05-02T15:16:39;5.00;;;2.80;;
49051;SDS011;34866;48.670;18.260;2023-05-02T15:19:14;7.82;;;3.08;;
49051;SDS011;34866;48.670;18.260;2023-05-02T15:21:41;8.20;;;3.80;;
49051;SDS011;34866;48.670;18.260;2023-05-02T15:24:16;7.35;;;2.55;;
49051;SDS011;34866;48.670;18.260;2023-05-02T15:26:43;5.40;;;2.70;;
49051;SDS011;34866;48.670;18.260;2023-05-02T15:29:09;7.03;;;2.95;;
49051;SDS011;34866;48.670;18.260;2023-05-02T15:31:35;6.55;;;2.67;;
49051;SDS011;34866;48.670;18.260;2023-05-02T15:34:01;5.72;;;2.97;;
49051;SDS011;34866;48.670;18.260;2023-05-02T15:36:33;8.30;;;4.10;;
49051;SDS011;34866;48.670;18.260;2023-05-02T15:39:04;5.38;;;2.95;;
49051;SDS011;34866;48.670;18.260;2023-05-02T15:41:30;12.90;;;3.83;;
49051;SDS011;34866;48.670;18.260;2023-05-02T15:44:09;5.53;;;2.90;;
49051;SDS011;34866;48.670;18.260;2023-05-02T15:46:35;17.08;;;4.45;;
49051;SDS011;34866;48.670;18.260;2023-05-02T15:49:03;6.13;;;2.95;;
49051;SDS011;34866;48.670;18.260;2023-05-02T15:51:28;5.30;;;2.80;;
49051;SDS011;34866;48.670;18.260;2023-05-02T15:54:00;5.85;;;3.05;;
49051;SDS011;34866;48.670;18.260;2023-05-02T15:56:26;8.40;;;2.90;;
49051;SDS011;34866;48.670;18.260;2023-05-02T15:58:52;10.60;;;3.13;;
49051;SDS011;34866;48.670;18.260;2023-05-02T16:01:17;7.05;;;2.85;;
49051;SDS011;34866;48.670;18.260;2023-05-02T16:03:45;5.95;;;3.00;;
49051;SDS011;34866;48.670;18.260;2023-05-02T16:06:11;6.40;;;3.40;;
49051;SDS011;34866;48.670;18.260;2023-05-02T16:08:37;11.70;;;3.50;;
49051;SDS011;34866;48.670;18.260;2023-05-02T16:11:02;10.88;;;3.38;;
49051;SDS011;34866;48.670;18.260;2023-05-02T16:13:28;6.85;;;3.15;;
49051;SDS011;34866;48.670;18.260;2023-05-02T16:18:47;5.50;;;2.72;;